createdAt,value
2018-08-04T00:02:07.838Z,21.27
2018-08-04T00:04:37.332Z,21.16
2018-08-04T00:07:07.348Z,21.19
2018-08-04T00:09:36.545Z,21.28
2018-08-04T00:17:21.913Z,21.24
2018-08-04T03:13:06.753Z,19.16
2018-08-04T03:15:36.322Z,19.17
2018-08-04T03:18:07.342Z,19.21
2018-08-04T03:20:38.145Z,19.25
2018-08-04T03:23:07.693Z,19.27
2018-08-04T03:25:37.703Z,19.30
2018-08-04T03:28:07.079Z,19.45
2018-08-04T03:30:36.672Z,19.22
2018-08-04T03:33:06.503Z,19.17
2018-08-04T03:35:37.374Z,19.12
2018-08-04T03:38:07.284Z,19.05
2018-08-04T03:40:36.669Z,19.07
2018-08-04T03:43:05.907Z,19.08
2018-08-04T03:45:34.981Z,19.28
2018-08-04T03:48:04.122Z,18.98
2018-08-04T03:50:34.402Z,18.89
2018-08-04T03:53:03.760Z,18.90
2018-08-04T03:55:32.466Z,18.89
2018-08-04T03:58:01.204Z,19.02
2018-08-04T04:00:31.569Z,18.98
2018-08-04T04:03:00.343Z,18.27
2018-08-04T04:05:29.051Z,18.90
2018-08-04T04:07:58.334Z,18.90
2018-08-04T04:10:27.527Z,18.54
2018-08-04T04:12:56.315Z,18.45
2018-08-04T04:15:25.002Z,18.40
2018-08-04T04:17:54.607Z,18.61
2018-08-04T04:20:23.296Z,18.79
2018-08-04T04:22:52.850Z,18.88
2018-08-04T04:25:22.056Z,18.97
2018-08-04T04:27:51.280Z,19.00
2018-08-04T04:30:20.806Z,19.03
2018-08-04T04:32:49.581Z,18.88
2018-08-04T04:35:18.684Z,18.66
2018-08-04T04:37:48.095Z,18.70
2018-08-04T04:40:17.486Z,18.59
2018-08-04T04:42:46.789Z,18.43
2018-08-04T04:45:15.677Z,18.66
2018-08-04T04:47:44.445Z,18.65
2018-08-04T04:50:13.774Z,18.63
2018-08-04T04:52:42.962Z,18.71
2018-08-04T04:55:11.653Z,18.82
2018-08-04T04:57:40.319Z,18.75
2018-08-04T05:00:09.064Z,19.03
2018-08-04T05:02:38.188Z,19.05
2018-08-04T05:05:08.621Z,19.25
2018-08-04T05:07:37.366Z,19.67
2018-08-04T05:10:07.270Z,19.43
2018-08-04T05:12:39.117Z,19.25
2018-08-04T05:15:08.494Z,19.51
2018-08-04T05:17:37.179Z,20.06
2018-08-04T05:20:06.873Z,19.95
2018-08-04T05:22:37.322Z,20.71
2018-08-04T05:25:07.196Z,21.34
2018-08-04T05:27:37.138Z,20.89
2018-08-04T05:30:06.946Z,20.91
2018-08-04T05:32:36.731Z,21.76
2018-08-04T05:35:05.461Z,22.13
2018-08-04T05:37:34.324Z,22.19
2018-08-04T05:40:03.076Z,22.52
2018-08-04T05:42:31.705Z,22.23
2018-08-04T05:45:00.497Z,22.04
2018-08-04T05:47:30.300Z,22.20
2018-08-04T05:49:58.988Z,22.13
2018-08-04T05:52:27.637Z,21.85
2018-08-04T05:54:56.645Z,22.44
2018-08-04T05:57:25.997Z,23.28
2018-08-04T05:59:55.029Z,24.08
2018-08-04T06:02:24.151Z,24.77
2018-08-04T06:04:53.705Z,24.97
2018-08-04T06:07:22.407Z,24.65
2018-08-04T06:09:52.208Z,24.95
2018-08-04T06:12:23.306Z,25.44
2018-08-04T06:14:52.072Z,25.99
2018-08-04T06:17:21.857Z,26.26
2018-08-04T06:19:50.585Z,26.38
2018-08-04T06:22:20.080Z,26.96
2018-08-04T06:24:49.322Z,27.28
2018-08-04T06:27:18.084Z,27.23
2018-08-04T06:29:46.699Z,26.87
2018-08-04T06:32:15.328Z,27.32
2018-08-04T06:34:44.040Z,27.56
2018-08-04T06:37:13.543Z,28.45
2018-08-04T06:39:43.628Z,28.43
2018-08-04T06:42:13.444Z,28.11
2018-08-04T06:44:42.132Z,28.72
2018-08-04T06:47:10.740Z,28.88
2018-08-04T06:49:39.985Z,29.16
2018-08-04T06:52:08.873Z,29.08
2018-08-04T06:54:37.601Z,29.28
2018-08-04T06:57:06.249Z,30.02
2018-08-04T06:59:34.877Z,30.62
2018-08-04T07:02:03.496Z,29.80
2018-08-04T07:04:34.245Z,28.98
2018-08-04T07:07:03.242Z,27.89
2018-08-04T07:09:33.255Z,27.66
2018-08-04T07:12:02.042Z,27.86
2018-08-04T07:14:32.147Z,28.03
2018-08-04T07:17:00.778Z,27.57
2018-08-04T07:19:29.483Z,28.40
2018-08-04T07:21:58.089Z,29.74
2018-08-04T07:24:26.717Z,29.18
2018-08-04T07:26:56.827Z,30.33
2018-08-04T07:29:25.535Z,29.87
2018-08-04T07:31:54.257Z,28.97
2018-08-04T07:34:23.175Z,29.71
2018-08-04T07:36:52.961Z,30.05
2018-08-04T07:39:21.609Z,29.02
2018-08-04T07:41:50.236Z,30.00
2018-08-04T07:44:19.424Z,30.24
2018-08-04T07:46:48.593Z,30.65
2018-08-04T07:49:18.219Z,30.88
2018-08-04T07:51:47.049Z,30.65
2018-08-04T07:54:15.697Z,30.88
2018-08-04T07:56:44.229Z,31.48
2018-08-04T07:59:12.885Z,32.25
2018-08-04T08:01:41.466Z,32.12
2018-08-04T08:04:10.203Z,33.43
2018-08-04T08:06:38.919Z,33.06
2018-08-04T08:09:09.252Z,33.24
2018-08-04T08:11:38.476Z,33.00
2018-08-04T08:14:07.843Z,32.04
2018-08-04T08:16:38.025Z,32.45
2018-08-04T08:19:08.677Z,32.59
2018-08-04T08:21:37.952Z,31.94
2018-08-04T08:24:07.818Z,31.90
2018-08-04T08:26:36.924Z,33.35
2018-08-04T08:29:06.495Z,32.68
2018-08-04T08:31:36.624Z,33.01
2018-08-04T08:35:13.658Z,33.81
2018-08-04T08:37:43.410Z,33.73
2018-08-04T08:40:13.126Z,34.21
2018-08-04T08:42:43.540Z,33.80
2018-08-04T08:45:13.321Z,33.77
2018-08-04T08:47:45.398Z,33.84
2018-08-04T08:50:16.364Z,34.15
2018-08-04T08:52:46.056Z,34.01
2018-08-04T08:55:16.570Z,33.64
2018-08-04T08:57:45.215Z,33.41
2018-08-04T09:00:14.846Z,34.29
2018-08-04T09:03:40.371Z,33.96
2018-08-04T09:06:10.368Z,34.99
2018-08-04T09:08:40.984Z,34.19
2018-08-04T09:11:12.712Z,34.39
2018-08-04T09:13:44.067Z,34.06
2018-08-04T09:16:12.975Z,34.17
2018-08-04T09:18:42.990Z,34.04
2018-08-04T09:21:12.909Z,34.10
2018-08-04T09:23:41.796Z,34.44
2018-08-04T09:26:11.610Z,34.78
2018-08-04T09:28:40.452Z,35.41
2018-08-04T09:31:10.393Z,35.35
2018-08-04T09:33:43.954Z,34.91
2018-08-04T09:36:13.069Z,35.03
2018-08-04T09:38:43.409Z,34.95
2018-08-04T09:41:12.177Z,34.97
2018-08-04T09:43:40.982Z,34.78
2018-08-04T09:46:09.771Z,34.33
2018-08-04T09:48:39.941Z,34.21
2018-08-04T09:51:08.864Z,34.89
2018-08-04T09:53:38.822Z,35.28
2018-08-04T09:56:09.371Z,35.40
2018-08-04T09:58:39.926Z,34.06
2018-08-04T10:01:14.303Z,36.42
2018-08-04T10:03:43.319Z,37.41
2018-08-04T10:06:14.148Z,36.39
2018-08-04T10:08:44.161Z,36.58
2018-08-04T10:11:13.244Z,36.77
2018-08-04T10:13:42.831Z,38.00
2018-08-04T10:16:13.329Z,40.09
2018-08-04T10:18:52.953Z,37.22
2018-08-04T10:21:21.659Z,36.13
2018-08-04T10:23:50.862Z,36.54
2018-08-04T10:26:19.698Z,36.35
2018-08-04T10:28:49.416Z,37.38
2018-08-04T10:31:18.126Z,38.47
2018-08-04T10:33:48.084Z,37.81
2018-08-04T10:36:18.354Z,36.91
2018-08-04T10:38:47.883Z,36.32
2018-08-04T10:41:16.568Z,34.78
2018-08-04T10:43:45.249Z,34.55
2018-08-04T10:46:14.389Z,34.65
2018-08-04T10:48:44.170Z,34.94
2018-08-04T10:51:14.054Z,34.90
2018-08-04T10:53:43.669Z,34.90
2018-08-04T10:56:13.383Z,34.41
2018-08-04T10:58:41.857Z,34.08
2018-08-04T11:01:10.440Z,33.57
2018-08-04T11:03:39.986Z,33.67
2018-08-04T11:06:10.568Z,33.66
2018-08-04T11:08:40.365Z,34.05
2018-08-04T11:11:09.991Z,34.41
2018-08-04T11:13:40.115Z,34.61
2018-08-04T11:16:09.164Z,35.36
2018-08-04T11:18:39.957Z,36.20
2018-08-04T11:21:09.756Z,35.88
2018-08-04T11:23:39.037Z,36.13
2018-08-04T11:26:08.748Z,36.01
2018-08-04T11:28:38.930Z,36.21
2018-08-04T11:31:08.211Z,36.30
2018-08-04T11:33:36.976Z,36.01
2018-08-04T11:36:06.073Z,36.33
2018-08-04T11:38:36.618Z,36.37
2018-08-04T11:41:06.092Z,35.99
2018-08-04T11:43:37.788Z,35.48
2018-08-04T11:46:06.639Z,35.41
2018-08-04T11:48:35.773Z,35.58
2018-08-04T11:51:04.815Z,35.19
2018-08-04T11:53:34.739Z,34.55
2018-08-04T11:56:03.374Z,34.73
2018-08-04T11:58:32.698Z,35.16
2018-08-04T12:01:02.242Z,34.85
2018-08-04T12:03:31.591Z,34.86
2018-08-04T12:06:01.605Z,36.51
2018-08-04T12:08:31.771Z,36.35
2018-08-04T12:11:03.520Z,35.59
2018-08-04T12:13:33.478Z,37.05
2018-08-04T12:16:03.397Z,37.28
2018-08-04T12:18:32.323Z,36.93
2018-08-04T12:21:03.137Z,36.53
2018-08-04T12:23:33.610Z,35.57
2018-08-04T12:26:03.416Z,36.09
2018-08-04T12:28:34.030Z,35.42
2018-08-04T12:31:03.247Z,37.06
2018-08-04T12:33:33.383Z,36.15
2018-08-04T12:36:02.629Z,35.62
2018-08-04T12:38:33.428Z,36.35
2018-08-04T12:41:03.682Z,36.08
2018-08-04T12:43:32.231Z,36.08
2018-08-04T12:46:03.312Z,36.85
2018-08-04T12:48:32.148Z,38.30
2018-08-04T12:51:02.133Z,37.87
2018-08-04T12:53:32.115Z,36.99
2018-08-04T12:56:01.949Z,37.28
2018-08-04T12:58:30.693Z,37.37
2018-08-04T13:01:01.667Z,36.78
2018-08-04T13:03:33.004Z,37.85
2018-08-04T13:06:02.854Z,37.82
2018-08-04T13:08:33.912Z,37.85
2018-08-04T13:11:02.539Z,38.34
2018-08-04T13:13:31.869Z,37.51
2018-08-04T13:16:02.559Z,36.97
2018-08-04T13:18:31.335Z,37.53
2018-08-04T13:21:01.595Z,37.62
2018-08-04T13:23:30.382Z,36.56
2018-08-04T13:25:59.621Z,37.69
2018-08-04T13:28:28.339Z,37.08
2018-08-04T13:30:58.205Z,36.44
2018-08-04T13:33:27.720Z,36.51
2018-08-04T13:35:58.392Z,36.72
2018-08-04T13:38:27.702Z,36.50
2018-08-04T13:40:56.276Z,37.63
2018-08-04T13:43:24.986Z,37.25
2018-08-04T13:45:55.356Z,37.94
2018-08-04T13:48:25.028Z,37.42
2018-08-04T13:50:54.685Z,37.14
2018-08-04T13:53:27.222Z,38.65
2018-08-04T13:55:58.481Z,37.51
2018-08-04T13:58:33.980Z,38.14
2018-08-04T14:01:03.591Z,37.17
2018-08-04T14:03:34.551Z,37.01
2018-08-04T14:06:03.599Z,37.01
2018-08-04T14:09:06.032Z,36.69
2018-08-04T14:11:36.157Z,36.67
2018-08-04T14:14:06.763Z,37.56
2018-08-04T14:16:36.233Z,36.70
2018-08-04T14:19:06.999Z,36.85
2018-08-04T14:21:36.957Z,37.30
2018-08-04T14:24:07.340Z,36.14
2018-08-04T14:26:37.151Z,35.41
2018-08-04T14:29:07.977Z,35.31
2018-08-04T14:31:37.779Z,35.12
2018-08-04T14:34:10.207Z,34.63
2018-08-04T14:36:44.080Z,34.70
2018-08-04T14:39:14.673Z,34.19
2018-08-04T14:41:43.816Z,34.84
2018-08-04T14:44:12.721Z,34.96
2018-08-04T14:46:44.172Z,34.79
2018-08-04T14:49:14.149Z,34.62
2018-08-04T14:51:43.625Z,34.76
2018-08-04T14:54:14.756Z,34.81
2018-08-04T14:56:49.027Z,34.79
2018-08-04T14:59:32.143Z,34.80
2018-08-04T15:02:07.814Z,34.40
2018-08-04T15:04:39.607Z,34.49
2018-08-04T15:07:10.690Z,34.46
2018-08-04T15:12:16.892Z,34.29
2018-08-04T15:14:49.564Z,34.22
2018-08-04T15:17:28.585Z,34.03
2018-08-04T15:20:07.261Z,34.40
2018-08-04T15:22:39.023Z,34.22
2018-08-04T15:25:10.393Z,34.25
2018-08-04T15:27:47.689Z,33.92
2018-08-04T15:30:19.243Z,34.09
2018-08-04T15:32:51.785Z,34.21
2018-08-04T15:35:27.581Z,34.07
2018-08-04T15:37:59.434Z,34.04
2018-08-04T15:40:30.177Z,33.88
2018-08-04T15:42:59.371Z,33.76
2018-08-04T15:45:30.496Z,33.75
2018-08-04T15:48:05.962Z,33.81
2018-08-04T15:50:37.710Z,33.86
2018-08-04T15:53:12.412Z,33.92
2018-08-04T15:55:48.058Z,33.82
2018-08-04T15:58:26.562Z,33.79
2018-08-04T16:00:56.705Z,33.74
2018-08-04T16:03:26.655Z,33.47
2018-08-04T16:06:01.715Z,33.54
2018-08-04T16:08:46.226Z,33.34
2018-08-04T16:11:50.910Z,33.44
2018-08-04T16:14:23.057Z,33.55
2018-08-04T16:16:59.437Z,33.70
2018-08-04T16:19:46.210Z,33.84
2018-08-04T16:22:23.857Z,33.66
2018-08-04T16:24:59.818Z,33.61
2018-08-04T16:27:42.598Z,33.63
2018-08-04T16:30:12.510Z,33.71
2018-08-04T16:32:44.396Z,33.69
2018-08-04T16:35:19.968Z,33.66
2018-08-04T16:37:54.125Z,33.84
2018-08-04T16:40:23.969Z,33.84
2018-08-04T16:43:00.112Z,33.77
2018-08-04T16:45:34.390Z,33.82
2018-08-04T16:48:03.916Z,33.77
2018-08-04T16:50:33.727Z,33.86
2018-08-04T16:53:04.358Z,33.67
2018-08-04T16:55:37.856Z,33.68
2018-08-04T16:58:07.371Z,33.78
2018-08-04T17:00:36.150Z,33.71
2018-08-04T17:03:08.216Z,33.72
2018-08-04T17:05:56.562Z,33.90
2018-08-04T17:18:03.318Z,33.64
2018-08-04T18:54:15.876Z,30.62
2018-08-04T18:56:48.324Z,30.49
2018-08-04T18:59:26.115Z,30.41
2018-08-04T19:02:02.672Z,30.34
2018-08-04T19:04:34.548Z,30.30
2018-08-04T19:07:20.091Z,30.24
2018-08-04T19:11:06.386Z,30.10
2018-08-04T19:16:27.515Z,29.94
2018-08-04T19:24:09.015Z,29.94
2018-08-04T19:26:59.666Z,29.70
2018-08-04T19:29:40.407Z,29.67
2018-08-04T19:35:36.278Z,29.55
2018-08-04T19:38:20.360Z,29.41
2018-08-04T19:50:53.577Z,29.39
2018-08-04T19:57:52.726Z,28.95
2018-08-04T20:00:53.777Z,28.98
2018-08-04T20:03:43.170Z,28.89
2018-08-04T20:22:14.108Z,28.24
2018-08-04T20:37:41.226Z,28.19
2018-08-04T20:40:11.645Z,28.00
2018-08-04T20:42:44.214Z,28.09
2018-08-04T20:45:34.866Z,28.21
2018-08-04T20:48:20.173Z,28.11
2018-08-04T20:50:51.747Z,28.13
2018-08-04T20:53:22.821Z,27.93
2018-08-04T20:55:53.238Z,27.97
2018-08-04T21:04:00.186Z,28.03
2018-08-04T21:07:03.992Z,27.92
2018-08-04T21:10:02.051Z,27.89
2018-08-04T21:12:33.672Z,27.77
2018-08-04T21:15:06.541Z,27.88
2018-08-04T21:17:38.988Z,27.87
2018-08-04T21:20:52.863Z,27.95
2018-08-04T21:33:41.520Z,27.36
2018-08-04T21:38:56.748Z,27.22
